sensor_id;sensor_type;location;lat;lon;timestamp;temperature;humidity
31729;DHT22;18309;43.658;1.312;2023-06-14T00:00:19;19.80;99.90
31729;DHT22;18309;43.658;1.312;2023-06-14T00:02:45;19.80;99.90
31729;DHT22;18309;43.658;1.312;2023-06-14T00:05:11;19.70;99.90
31729;DHT22;18309;43.658;1.312;2023-06-14T00:07:41;19.70;99.90
31729;DHT22;18309;43.658;1.312;2023-06-14T00:10:10;19.70;99.90
31729;DHT22;18309;43.658;1.312;2023-06-14T00:12:37;19.70;99.90
31729;DHT22;18309;43.658;1.312;2023-06-14T00:15:03;19.70;99.90
31729;DHT22;18309;43.658;1.312;2023-06-14T00:17:29;19.70;99.90
31729;DHT22;18309;43.658;1.312;2023-06-14T00:19:58;19.70;99.90
31729;DHT22;18309;43.658;1.312;2023-06-14T00:22:25;19.70;99.90
31729;DHT22;18309;43.658;1.312;2023-06-14T00:24:51;19.70;99.90
31729;DHT22;18309;43.658;1.312;2023-06-14T00:27:17;19.70;99.90
31729;DHT22;18309;43.658;1.312;2023-06-14T00:29:43;19.70;99.90
31729;DHT22;18309;43.658;1.312;2023-06-14T00:32:09;19.70;99.90
31729;DHT22;18309;43.658;1.312;2023-06-14T00:34:35;19.80;99.90
31729;DHT22;18309;43.658;1.312;2023-06-14T00:37:00;19.80;99.90
31729;DHT22;18309;43.658;1.312;2023-06-14T00:39:26;19.80;99.90
31729;DHT22;18309;43.658;1.312;2023-06-14T00:41:52;19.80;99.90
31729;DHT22;18309;43.658;1.312;2023-06-14T00:44:18;19.80;99.90
31729;DHT22;18309;43.658;1.312;2023-06-14T00:46:45;19.70;99.90
31729;DHT22;18309;43.658;1.312;2023-06-14T00:49:12;19.80;99.90
31729;DHT22;18309;43.658;1.312;2023-06-14T00:51:38;19.80;99.90
31729;DHT22;18309;43.658;1.312;2023-06-14T00:54:04;19.80;99.90
31729;DHT22;18309;43.658;1.312;2023-06-14T00:56:30;19.80;99.90
31729;DHT22;18309;43.658;1.312;2023-06-14T00:58:56;19.80;99.90
31729;DHT22;18309;43.658;1.312;2023-06-14T01:01:23;19.80;99.90
31729;DHT22;18309;43.658;1.312;2023-06-14T01:03:49;19.80;99.90
31729;DHT22;18309;43.658;1.312;2023-06-14T01:09:52;19.80;99.90
31729;DHT22;18309;43.658;1.312;2023-06-14T01:14:34;19.80;99.90
31729;DHT22;18309;43.658;1.312;2023-06-14T01:17:01;19.70;99.90
31729;DHT22;18309;43.658;1.312;2023-06-14T01:19:27;19.80;99.90
31729;DHT22;18309;43.658;1.312;2023-06-14T01:21:55;19.80;99.90
31729;DHT22;18309;43.658;1.312;2023-06-14T01:24:21;19.80;99.90
31729;DHT22;18309;43.658;1.312;2023-06-14T01:26:53;19.80;99.90
31729;DHT22;18309;43.658;1.312;2023-06-14T01:29:24;19.80;99.90
31729;DHT22;18309;43.658;1.312;2023-06-14T01:31:50;19.80;99.90
31729;DHT22;18309;43.658;1.312;2023-06-14T01:34:16;19.80;99.90
31729;DHT22;18309;43.658;1.312;2023-06-14T01:36:44;19.80;99.90
31729;DHT22;18309;43.658;1.312;2023-06-14T01:39:14;19.80;99.90
31729;DHT22;18309;43.658;1.312;2023-06-14T01:41:44;19.80;99.90
31729;DHT22;18309;43.658;1.312;2023-06-14T01:44:12;19.80;99.90
31729;DHT22;18309;43.658;1.312;2023-06-14T01:46:38;19.80;99.90
31729;DHT22;18309;43.658;1.312;2023-06-14T01:49:04;19.80;99.90
31729;DHT22;18309;43.658;1.312;2023-06-14T01:51:29;19.80;99.90
31729;DHT22;18309;43.658;1.312;2023-06-14T01:53:56;19.80;99.90
31729;DHT22;18309;43.658;1.312;2023-06-14T01:56:22;19.80;99.90
31729;DHT22;18309;43.658;1.312;2023-06-14T01:58:48;19.80;99.90
31729;DHT22;18309;43.658;1.312;2023-06-14T02:01:13;19.80;99.90
31729;DHT22;18309;43.658;1.312;2023-06-14T02:03:41;19.80;99.90
31729;DHT22;18309;43.658;1.312;2023-06-14T02:06:07;19.70;99.90
31729;DHT22;18309;43.658;1.312;2023-06-14T02:08:33;19.80;99.90
31729;DHT22;18309;43.658;1.312;2023-06-14T02:10:59;19.70;99.90
31729;DHT22;18309;43.658;1.312;2023-06-14T02:13:24;19.70;99.90
31729;DHT22;18309;43.658;1.312;2023-06-14T02:15:50;19.70;99.90
31729;DHT22;18309;43.658;1.312;2023-06-14T02:18:20;19.70;99.90
31729;DHT22;18309;43.658;1.312;2023-06-14T02:20:46;19.70;99.90
31729;DHT22;18309;43.658;1.312;2023-06-14T02:23:12;19.70;99.90
31729;DHT22;18309;43.658;1.312;2023-06-14T02:25:38;19.70;99.90
31729;DHT22;18309;43.658;1.312;2023-06-14T02:28:05;19.60;99.90
31729;DHT22;18309;43.658;1.312;2023-06-14T02:30:31;19.60;99.90
31729;DHT22;18309;43.658;1.312;2023-06-14T02:32:57;19.70;99.90
31729;DHT22;18309;43.658;1.312;2023-06-14T02:35:23;19.70;99.90
31729;DHT22;18309;43.658;1.312;2023-06-14T02:37:52;19.60;99.90
31729;DHT22;18309;43.658;1.312;2023-06-14T02:40:18;19.60;99.90
31729;DHT22;18309;43.658;1.312;2023-06-14T02:42:44;19.60;99.90
31729;DHT22;18309;43.658;1.312;2023-06-14T02:45:10;19.60;99.90
31729;DHT22;18309;43.658;1.312;2023-06-14T02:47:36;19.60;99.90
31729;DHT22;18309;43.658;1.312;2023-06-14T02:50:02;19.60;99.90
31729;DHT22;18309;43.658;1.312;2023-06-14T02:52:28;19.60;99.90
31729;DHT22;18309;43.658;1.312;2023-06-14T02:54:54;19.60;99.90
31729;DHT22;18309;43.658;1.312;2023-06-14T02:57:21;19.60;99.90
31729;DHT22;18309;43.658;1.312;2023-06-14T02:59:47;19.60;99.90
31729;DHT22;18309;43.658;1.312;2023-06-14T03:02:12;19.50;99.90
31729;DHT22;18309;43.658;1.312;2023-06-14T03:04:38;19.50;99.90
31729;DHT22;18309;43.658;1.312;2023-06-14T03:07:04;19.60;99.90
31729;DHT22;18309;43.658;1.312;2023-06-14T03:09:37;19.50;99.90
31729;DHT22;18309;43.658;1.312;2023-06-14T03:12:04;19.50;99.90
31729;DHT22;18309;43.658;1.312;2023-06-14T03:14:32;19.50;99.90
31729;DHT22;18309;43.658;1.312;2023-06-14T03:16:57;19.50;99.90
31729;DHT22;18309;43.658;1.312;2023-06-14T03:19:24;19.50;99.90
31729;DHT22;18309;43.658;1.312;2023-06-14T03:21:51;19.50;99.90
31729;DHT22;18309;43.658;1.312;2023-06-14T03:24:17;19.50;99.90
31729;DHT22;18309;43.658;1.312;2023-06-14T03:26:43;19.50;99.90
31729;DHT22;18309;43.658;1.312;2023-06-14T03:29:09;19.40;99.90
31729;DHT22;18309;43.658;1.312;2023-06-14T03:31:34;19.40;99.90
31729;DHT22;18309;43.658;1.312;2023-06-14T03:34:01;19.40;99.90
31729;DHT22;18309;43.658;1.312;2023-06-14T03:36:27;19.40;99.90
31729;DHT22;18309;43.658;1.312;2023-06-14T03:38:54;19.40;99.90
31729;DHT22;18309;43.658;1.312;2023-06-14T03:41:20;19.40;99.90
31729;DHT22;18309;43.658;1.312;2023-06-14T03:43:46;19.40;99.90
31729;DHT22;18309;43.658;1.312;2023-06-14T03:46:12;19.40;99.90
31729;DHT22;18309;43.658;1.312;2023-06-14T03:48:37;19.40;99.90
31729;DHT22;18309;43.658;1.312;2023-06-14T03:51:04;19.40;99.90
31729;DHT22;18309;43.658;1.312;2023-06-14T03:53:30;19.40;99.90
31729;DHT22;18309;43.658;1.312;2023-06-14T03:55:56;19.40;99.90
31729;DHT22;18309;43.658;1.312;2023-06-14T03:58:22;19.30;99.90
31729;DHT22;18309;43.658;1.312;2023-06-14T04:00:48;19.30;99.90
31729;DHT22;18309;43.658;1.312;2023-06-14T04:03:14;19.30;99.90
31729;DHT22;18309;43.658;1.312;2023-06-14T04:05:41;19.30;99.90
31729;DHT22;18309;43.658;1.312;2023-06-14T04:08:14;19.30;99.90
31729;DHT22;18309;43.658;1.312;2023-06-14T04:10:41;19.30;99.90
31729;DHT22;18309;43.658;1.312;2023-06-14T04:13:07;19.30;99.90
31729;DHT22;18309;43.658;1.312;2023-06-14T04:15:32;19.30;99.90
31729;DHT22;18309;43.658;1.312;2023-06-14T04:17:58;19.30;99.90
31729;DHT22;18309;43.658;1.312;2023-06-14T04:20:24;19.30;99.90
31729;DHT22;18309;43.658;1.312;2023-06-14T04:22:51;19.30;99.90
31729;DHT22;18309;43.658;1.312;2023-06-14T04:25:18;19.30;99.90
31729;DHT22;18309;43.658;1.312;2023-06-14T04:27:44;19.30;99.90
31729;DHT22;18309;43.658;1.312;2023-06-14T04:30:09;19.30;99.90
31729;DHT22;18309;43.658;1.312;2023-06-14T04:32:35;19.30;99.90
31729;DHT22;18309;43.658;1.312;2023-06-14T04:35:07;19.30;99.90
31729;DHT22;18309;43.658;1.312;2023-06-14T04:37:33;19.30;99.90
31729;DHT22;18309;43.658;1.312;2023-06-14T04:40:02;19.30;99.90
31729;DHT22;18309;43.658;1.312;2023-06-14T04:42:30;19.30;99.90
31729;DHT22;18309;43.658;1.312;2023-06-14T04:44:56;19.30;99.90
31729;DHT22;18309;43.658;1.312;2023-06-14T04:47:22;19.30;99.90
31729;DHT22;18309;43.658;1.312;2023-06-14T04:49:50;19.30;99.90
31729;DHT22;18309;43.658;1.312;2023-06-14T04:52:18;19.30;99.90
31729;DHT22;18309;43.658;1.312;2023-06-14T04:54:46;19.30;99.90
31729;DHT22;18309;43.658;1.312;2023-06-14T04:57:12;19.30;99.90
31729;DHT22;18309;43.658;1.312;2023-06-14T04:59:40;19.30;99.90
31729;DHT22;18309;43.658;1.312;2023-06-14T05:02:06;19.30;99.90
31729;DHT22;18309;43.658;1.312;2023-06-14T05:04:32;19.30;99.90
31729;DHT22;18309;43.658;1.312;2023-06-14T05:06:58;19.30;99.90
31729;DHT22;18309;43.658;1.312;2023-06-14T05:09:24;19.30;99.90
31729;DHT22;18309;43.658;1.312;2023-06-14T05:11:50;19.30;99.90
31729;DHT22;18309;43.658;1.312;2023-06-14T05:14:16;19.30;99.90
31729;DHT22;18309;43.658;1.312;2023-06-14T05:16:43;19.30;99.90
31729;DHT22;18309;43.658;1.312;2023-06-14T05:19:08;19.30;99.90
31729;DHT22;18309;43.658;1.312;2023-06-14T05:21:36;19.30;99.90
31729;DHT22;18309;43.658;1.312;2023-06-14T05:24:02;19.30;99.90
31729;DHT22;18309;43.658;1.312;2023-06-14T05:26:28;19.30;99.90
31729;DHT22;18309;43.658;1.312;2023-06-14T05:28:57;19.30;99.90
31729;DHT22;18309;43.658;1.312;2023-06-14T05:31:27;19.40;99.90
31729;DHT22;18309;43.658;1.312;2023-06-14T05:33:54;19.40;99.90
31729;DHT22;18309;43.658;1.312;2023-06-14T05:36:20;19.30;99.90
31729;DHT22;18309;43.658;1.312;2023-06-14T05:38:49;19.40;99.90
31729;DHT22;18309;43.658;1.312;2023-06-14T05:41:16;19.40;99.90
31729;DHT22;18309;43.658;1.312;2023-06-14T05:43:42;19.40;99.90
31729;DHT22;18309;43.658;1.312;2023-06-14T05:46:07;19.40;99.90
31729;DHT22;18309;43.658;1.312;2023-06-14T05:48:33;19.40;99.90
31729;DHT22;18309;43.658;1.312;2023-06-14T05:50:59;19.40;99.90
31729;DHT22;18309;43.658;1.312;2023-06-14T05:53:25;19.40;99.90
31729;DHT22;18309;43.658;1.312;2023-06-14T05:55:51;19.30;99.90
31729;DHT22;18309;43.658;1.312;2023-06-14T05:58:21;19.30;99.90
31729;DHT22;18309;43.658;1.312;2023-06-14T06:00:47;19.30;99.90
31729;DHT22;18309;43.658;1.312;2023-06-14T06:03:12;19.30;99.90
31729;DHT22;18309;43.658;1.312;2023-06-14T06:05:39;19.30;99.90
31729;DHT22;18309;43.658;1.312;2023-06-14T06:08:04;19.30;99.90
31729;DHT22;18309;43.658;1.312;2023-06-14T06:10:30;19.30;99.90
31729;DHT22;18309;43.658;1.312;2023-06-14T06:12:56;19.30;99.90
31729;DHT22;18309;43.658;1.312;2023-06-14T06:15:22;19.20;99.90
31729;DHT22;18309;43.658;1.312;2023-06-14T06:17:47;19.20;99.90
31729;DHT22;18309;43.658;1.312;2023-06-14T06:20:13;19.30;99.90
31729;DHT22;18309;43.658;1.312;2023-06-14T06:22:39;19.30;99.90
31729;DHT22;18309;43.658;1.312;2023-06-14T06:25:05;19.20;99.90
31729;DHT22;18309;43.658;1.312;2023-06-14T06:27:32;19.20;99.90
31729;DHT22;18309;43.658;1.312;2023-06-14T06:29:57;19.20;99.90
31729;DHT22;18309;43.658;1.312;2023-06-14T06:32:23;19.30;99.90
31729;DHT22;18309;43.658;1.312;2023-06-14T06:34:48;19.30;99.90
31729;DHT22;18309;43.658;1.312;2023-06-14T06:37:14;19.80;99.90
31729;DHT22;18309;43.658;1.312;2023-06-14T06:39:40;20.30;99.90
31729;DHT22;18309;43.658;1.312;2023-06-14T06:42:06;20.70;99.90
31729;DHT22;18309;43.658;1.312;2023-06-14T06:44:32;21.10;99.90
31729;DHT22;18309;43.658;1.312;2023-06-14T06:46:58;20.90;99.90
31729;DHT22;18309;43.658;1.312;2023-06-14T06:49:24;21.40;99.90
31729;DHT22;18309;43.658;1.312;2023-06-14T06:52:03;21.30;99.90
31729;DHT22;18309;43.658;1.312;2023-06-14T06:54:29;21.20;99.90
31729;DHT22;18309;43.658;1.312;2023-06-14T06:56:55;21.30;99.90
31729;DHT22;18309;43.658;1.312;2023-06-14T06:59:21;21.30;99.90
31729;DHT22;18309;43.658;1.312;2023-06-14T07:01:47;20.70;99.90
31729;DHT22;18309;43.658;1.312;2023-06-14T07:04:13;20.40;99.90
31729;DHT22;18309;43.658;1.312;2023-06-14T07:06:39;20.30;99.90
31729;DHT22;18309;43.658;1.312;2023-06-14T07:09:05;20.20;99.90
31729;DHT22;18309;43.658;1.312;2023-06-14T07:11:33;20.10;99.90
31729;DHT22;18309;43.658;1.312;2023-06-14T07:13:59;19.90;99.90
31729;DHT22;18309;43.658;1.312;2023-06-14T07:16:25;19.70;99.90
31729;DHT22;18309;43.658;1.312;2023-06-14T07:18:51;19.90;99.90
31729;DHT22;18309;43.658;1.312;2023-06-14T07:21:17;19.90;99.90
31729;DHT22;18309;43.658;1.312;2023-06-14T07:23:43;20.00;99.90
31729;DHT22;18309;43.658;1.312;2023-06-14T07:26:09;20.00;99.90
31729;DHT22;18309;43.658;1.312;2023-06-14T07:28:34;20.00;99.90
31729;DHT22;18309;43.658;1.312;2023-06-14T07:31:01;20.00;99.90
31729;DHT22;18309;43.658;1.312;2023-06-14T07:33:26;20.00;99.90
31729;DHT22;18309;43.658;1.312;2023-06-14T07:35:52;20.10;99.90
31729;DHT22;18309;43.658;1.312;2023-06-14T07:38:18;20.10;99.90
31729;DHT22;18309;43.658;1.312;2023-06-14T07:40:44;19.90;99.90
31729;DHT22;18309;43.658;1.312;2023-06-14T07:43:10;19.80;99.90
31729;DHT22;18309;43.658;1.312;2023-06-14T07:45:36;19.70;99.90
31729;DHT22;18309;43.658;1.312;2023-06-14T07:48:02;19.70;99.90
31729;DHT22;18309;43.658;1.312;2023-06-14T07:50:28;19.70;99.90
31729;DHT22;18309;43.658;1.312;2023-06-14T07:52:54;19.70;99.90
31729;DHT22;18309;43.658;1.312;2023-06-14T07:55:20;19.70;99.90
31729;DHT22;18309;43.658;1.312;2023-06-14T07:57:46;19.70;99.90
31729;DHT22;18309;43.658;1.312;2023-06-14T08:00:12;19.70;99.90
31729;DHT22;18309;43.658;1.312;2023-06-14T08:02:41;19.70;99.90
31729;DHT22;18309;43.658;1.312;2023-06-14T08:05:09;19.80;99.90
31729;DHT22;18309;43.658;1.312;2023-06-14T08:07:36;19.90;99.90
31729;DHT22;18309;43.658;1.312;2023-06-14T08:10:03;19.80;99.90
31729;DHT22;18309;43.658;1.312;2023-06-14T08:12:29;19.80;99.90
31729;DHT22;18309;43.658;1.312;2023-06-14T08:14:55;19.80;99.90
31729;DHT22;18309;43.658;1.312;2023-06-14T08:17:20;19.80;99.90
31729;DHT22;18309;43.658;1.312;2023-06-14T08:19:46;19.80;99.90
31729;DHT22;18309;43.658;1.312;2023-06-14T08:22:12;19.80;99.90
31729;DHT22;18309;43.658;1.312;2023-06-14T08:24:38;19.90;99.90
31729;DHT22;18309;43.658;1.312;2023-06-14T08:27:05;19.90;99.90
31729;DHT22;18309;43.658;1.312;2023-06-14T08:29:31;19.90;99.90
31729;DHT22;18309;43.658;1.312;2023-06-14T08:31:57;20.00;99.90
31729;DHT22;18309;43.658;1.312;2023-06-14T08:34:23;20.00;99.90
31729;DHT22;18309;43.658;1.312;2023-06-14T08:36:50;20.10;99.90
31729;DHT22;18309;43.658;1.312;2023-06-14T08:39:16;20.30;99.90
31729;DHT22;18309;43.658;1.312;2023-06-14T08:41:44;20.30;99.90
31729;DHT22;18309;43.658;1.312;2023-06-14T08:44:11;20.40;99.90
31729;DHT22;18309;43.658;1.312;2023-06-14T08:46:37;20.40;99.90
31729;DHT22;18309;43.658;1.312;2023-06-14T08:49:04;20.50;99.90
31729;DHT22;18309;43.658;1.312;2023-06-14T08:51:31;20.50;99.90
31729;DHT22;18309;43.658;1.312;2023-06-14T08:54:00;20.40;99.90
31729;DHT22;18309;43.658;1.312;2023-06-14T08:56:28;20.30;99.90
31729;DHT22;18309;43.658;1.312;2023-06-14T08:58:55;20.40;99.90
31729;DHT22;18309;43.658;1.312;2023-06-14T09:01:22;20.40;99.90
31729;DHT22;18309;43.658;1.312;2023-06-14T09:03:49;20.50;99.90
31729;DHT22;18309;43.658;1.312;2023-06-14T09:06:15;20.60;99.90
31729;DHT22;18309;43.658;1.312;2023-06-14T09:08:45;20.60;99.90
31729;DHT22;18309;43.658;1.312;2023-06-14T09:11:12;20.60;99.90
31729;DHT22;18309;43.658;1.312;2023-06-14T09:13:39;20.60;99.90
31729;DHT22;18309;43.658;1.312;2023-06-14T09:16:05;20.60;99.90
31729;DHT22;18309;43.658;1.312;2023-06-14T09:18:50;20.60;99.90
31729;DHT22;18309;43.658;1.312;2023-06-14T09:21:17;20.70;99.90
31729;DHT22;18309;43.658;1.312;2023-06-14T09:23:46;20.70;99.90
31729;DHT22;18309;43.658;1.312;2023-06-14T09:26:17;20.70;99.90
31729;DHT22;18309;43.658;1.312;2023-06-14T09:28:50;20.80;99.90
31729;DHT22;18309;43.658;1.312;2023-06-14T09:31:20;20.90;99.90
31729;DHT22;18309;43.658;1.312;2023-06-14T09:33:49;20.90;99.90
31729;DHT22;18309;43.658;1.312;2023-06-14T09:36:22;21.00;99.90
31729;DHT22;18309;43.658;1.312;2023-06-14T09:39:03;21.00;99.90
31729;DHT22;18309;43.658;1.312;2023-06-14T09:41:34;21.00;99.90
31729;DHT22;18309;43.658;1.312;2023-06-14T09:44:00;21.00;99.90
31729;DHT22;18309;43.658;1.312;2023-06-14T09:46:29;21.20;99.90
31729;DHT22;18309;43.658;1.312;2023-06-14T09:48:58;21.20;99.90
31729;DHT22;18309;43.658;1.312;2023-06-14T09:51:25;21.30;99.90
31729;DHT22;18309;43.658;1.312;2023-06-14T09:53:52;21.40;99.90
31729;DHT22;18309;43.658;1.312;2023-06-14T09:56:23;21.50;99.90
31729;DHT22;18309;43.658;1.312;2023-06-14T09:58:55;21.50;99.90
31729;DHT22;18309;43.658;1.312;2023-06-14T10:01:25;21.70;99.90
31729;DHT22;18309;43.658;1.312;2023-06-14T10:03:57;21.60;99.90
31729;DHT22;18309;43.658;1.312;2023-06-14T10:06:26;21.60;99.90
31729;DHT22;18309;43.658;1.312;2023-06-14T10:08:56;21.60;99.90
31729;DHT22;18309;43.658;1.312;2023-06-14T10:11:23;21.60;99.90
31729;DHT22;18309;43.658;1.312;2023-06-14T10:13:49;21.80;99.90
31729;DHT22;18309;43.658;1.312;2023-06-14T10:19:22;22.00;99.90
31729;DHT22;18309;43.658;1.312;2023-06-14T10:21:58;22.10;99.90
31729;DHT22;18309;43.658;1.312;2023-06-14T10:24:42;22.20;99.90
31729;DHT22;18309;43.658;1.312;2023-06-14T10:27:09;22.50;99.90
31729;DHT22;18309;43.658;1.312;2023-06-14T10:32:18;22.50;99.90
31729;DHT22;18309;43.658;1.312;2023-06-14T10:34:44;22.60;99.90
31729;DHT22;18309;43.658;1.312;2023-06-14T10:37:12;22.50;99.90
31729;DHT22;18309;43.658;1.312;2023-06-14T10:39:45;22.60;99.90
31729;DHT22;18309;43.658;1.312;2023-06-14T10:42:14;22.80;99.90
31729;DHT22;18309;43.658;1.312;2023-06-14T10:44:50;22.80;99.90
31729;DHT22;18309;43.658;1.312;2023-06-14T10:50:04;22.90;99.90
31729;DHT22;18309;43.658;1.312;2023-06-14T10:52:39;22.90;99.90
31729;DHT22;18309;43.658;1.312;2023-06-14T10:55:13;22.90;99.90
31729;DHT22;18309;43.658;1.312;2023-06-14T10:57:51;23.00;99.90
31729;DHT22;18309;43.658;1.312;2023-06-14T11:00:21;23.10;99.90
31729;DHT22;18309;43.658;1.312;2023-06-14T11:05:26;22.90;99.90
31729;DHT22;18309;43.658;1.312;2023-06-14T11:10:40;23.10;99.90
31729;DHT22;18309;43.658;1.312;2023-06-14T11:13:07;23.20;99.90
31729;DHT22;18309;43.658;1.312;2023-06-14T11:15:34;23.20;99.90
31729;DHT22;18309;43.658;1.312;2023-06-14T11:18:05;23.30;99.90
31729;DHT22;18309;43.658;1.312;2023-06-14T11:20:32;23.30;99.90
31729;DHT22;18309;43.658;1.312;2023-06-14T11:22:58;23.40;99.90
31729;DHT22;18309;43.658;1.312;2023-06-14T11:25:25;23.30;99.90
31729;DHT22;18309;43.658;1.312;2023-06-14T11:27:52;23.30;99.90
31729;DHT22;18309;43.658;1.312;2023-06-14T11:30:18;23.50;99.90
31729;DHT22;18309;43.658;1.312;2023-06-14T11:32:48;23.70;99.90
31729;DHT22;18309;43.658;1.312;2023-06-14T11:35:14;23.70;99.90
31729;DHT22;18309;43.658;1.312;2023-06-14T11:37:40;23.80;99.90
31729;DHT22;18309;43.658;1.312;2023-06-14T11:40:08;23.70;99.90
31729;DHT22;18309;43.658;1.312;2023-06-14T11:42:36;23.70;99.90
31729;DHT22;18309;43.658;1.312;2023-06-14T11:45:02;24.00;99.90
31729;DHT22;18309;43.658;1.312;2023-06-14T11:47:46;23.90;99.90
31729;DHT22;18309;43.658;1.312;2023-06-14T11:50:12;24.00;99.90
31729;DHT22;18309;43.658;1.312;2023-06-14T11:52:38;24.20;99.90
31729;DHT22;18309;43.658;1.312;2023-06-14T11:55:04;24.30;99.90
31729;DHT22;18309;43.658;1.312;2023-06-14T11:57:33;24.20;99.90
31729;DHT22;18309;43.658;1.312;2023-06-14T11:59:59;24.20;99.90
31729;DHT22;18309;43.658;1.312;2023-06-14T12:02:24;24.30;99.90
31729;DHT22;18309;43.658;1.312;2023-06-14T12:04:53;24.50;99.90
31729;DHT22;18309;43.658;1.312;2023-06-14T12:07:22;24.60;99.90
31729;DHT22;18309;43.658;1.312;2023-06-14T12:12:21;24.60;99.90
31729;DHT22;18309;43.658;1.312;2023-06-14T12:14:47;24.60;99.90
31729;DHT22;18309;43.658;1.312;2023-06-14T12:17:13;24.80;99.90
31729;DHT22;18309;43.658;1.312;2023-06-14T12:19:43;24.90;99.90
31729;DHT22;18309;43.658;1.312;2023-06-14T12:22:13;24.80;99.90
31729;DHT22;18309;43.658;1.312;2023-06-14T12:24:39;24.90;99.90
31729;DHT22;18309;43.658;1.312;2023-06-14T12:27:08;24.90;99.90
31729;DHT22;18309;43.658;1.312;2023-06-14T12:29:34;24.70;99.90
31729;DHT22;18309;43.658;1.312;2023-06-14T12:32:00;24.70;99.90
31729;DHT22;18309;43.658;1.312;2023-06-14T12:34:27;24.70;99.90
31729;DHT22;18309;43.658;1.312;2023-06-14T12:36:56;24.70;99.90
31729;DHT22;18309;43.658;1.312;2023-06-14T12:39:22;24.70;99.90
31729;DHT22;18309;43.658;1.312;2023-06-14T12:41:48;24.80;99.90
31729;DHT22;18309;43.658;1.312;2023-06-14T12:44:16;24.90;99.90
31729;DHT22;18309;43.658;1.312;2023-06-14T12:46:42;24.90;99.90
31729;DHT22;18309;43.658;1.312;2023-06-14T12:49:12;24.90;99.90
31729;DHT22;18309;43.658;1.312;2023-06-14T12:51:39;25.00;99.90
31729;DHT22;18309;43.658;1.312;2023-06-14T12:54:06;25.30;99.90
31729;DHT22;18309;43.658;1.312;2023-06-14T12:56:32;25.30;99.90
31729;DHT22;18309;43.658;1.312;2023-06-14T12:58:58;25.50;97.80
31729;DHT22;18309;43.658;1.312;2023-06-14T13:01:24;25.30;98.40
31729;DHT22;18309;43.658;1.312;2023-06-14T13:03:49;25.50;99.00
31729;DHT22;18309;43.658;1.312;2023-06-14T13:06:17;25.60;97.50
31729;DHT22;18309;43.658;1.312;2023-06-14T13:08:42;26.20;98.10
31729;DHT22;18309;43.658;1.312;2023-06-14T13:11:08;25.60;99.30
31729;DHT22;18309;43.658;1.312;2023-06-14T13:13:34;25.60;98.80
31729;DHT22;18309;43.658;1.312;2023-06-14T13:16:00;25.70;99.00
31729;DHT22;18309;43.658;1.312;2023-06-14T13:18:26;25.50;99.30
31729;DHT22;18309;43.658;1.312;2023-06-14T13:20:52;25.50;98.20
31729;DHT22;18309;43.658;1.312;2023-06-14T13:23:17;25.40;98.10
31729;DHT22;18309;43.658;1.312;2023-06-14T13:25:43;25.30;98.90
31729;DHT22;18309;43.658;1.312;2023-06-14T13:28:09;25.60;98.00
31729;DHT22;18309;43.658;1.312;2023-06-14T13:30:35;25.90;98.50
31729;DHT22;18309;43.658;1.312;2023-06-14T13:33:01;26.10;98.50
31729;DHT22;18309;43.658;1.312;2023-06-14T13:35:27;26.50;98.00
31729;DHT22;18309;43.658;1.312;2023-06-14T13:37:53;27.40;96.70
31729;DHT22;18309;43.658;1.312;2023-06-14T13:40:18;28.00;95.90
31729;DHT22;18309;43.658;1.312;2023-06-14T13:42:45;27.10;95.90
31729;DHT22;18309;43.658;1.312;2023-06-14T13:45:12;26.40;96.70
31729;DHT22;18309;43.658;1.312;2023-06-14T13:47:38;26.00;98.00
31729;DHT22;18309;43.658;1.312;2023-06-14T13:50:04;26.10;99.30
31729;DHT22;18309;43.658;1.312;2023-06-14T13:52:30;26.40;99.70
31729;DHT22;18309;43.658;1.312;2023-06-14T13:54:56;25.80;99.70
31729;DHT22;18309;43.658;1.312;2023-06-14T13:57:23;25.60;99.70
31729;DHT22;18309;43.658;1.312;2023-06-14T13:59:49;25.40;99.90
31729;DHT22;18309;43.658;1.312;2023-06-14T14:02:15;25.30;99.90
31729;DHT22;18309;43.658;1.312;2023-06-14T14:04:41;25.30;99.90
31729;DHT22;18309;43.658;1.312;2023-06-14T14:07:07;25.80;99.90
31729;DHT22;18309;43.658;1.312;2023-06-14T14:09:33;26.10;99.90
31729;DHT22;18309;43.658;1.312;2023-06-14T14:12:03;25.70;99.90
31729;DHT22;18309;43.658;1.312;2023-06-14T14:14:31;25.40;99.90
31729;DHT22;18309;43.658;1.312;2023-06-14T14:16:57;25.20;99.90
31729;DHT22;18309;43.658;1.312;2023-06-14T14:19:23;25.10;99.90
31729;DHT22;18309;43.658;1.312;2023-06-14T14:21:49;25.00;99.90
31729;DHT22;18309;43.658;1.312;2023-06-14T14:24:15;25.40;99.90
31729;DHT22;18309;43.658;1.312;2023-06-14T14:26:42;25.80;99.90
31729;DHT22;18309;43.658;1.312;2023-06-14T14:29:08;25.70;99.90
31729;DHT22;18309;43.658;1.312;2023-06-14T14:31:36;25.60;99.90
31729;DHT22;18309;43.658;1.312;2023-06-14T14:34:02;25.70;99.90
31729;DHT22;18309;43.658;1.312;2023-06-14T14:36:28;25.80;99.90
31729;DHT22;18309;43.658;1.312;2023-06-14T14:38:53;25.90;99.90
31729;DHT22;18309;43.658;1.312;2023-06-14T14:41:19;25.70;99.90
31729;DHT22;18309;43.658;1.312;2023-06-14T14:43:45;25.70;99.90
31729;DHT22;18309;43.658;1.312;2023-06-14T14:46:11;25.90;99.90
31729;DHT22;18309;43.658;1.312;2023-06-14T14:48:36;25.80;99.60
31729;DHT22;18309;43.658;1.312;2023-06-14T14:51:02;26.10;99.40
31729;DHT22;18309;43.658;1.312;2023-06-14T14:53:28;25.70;99.30
31729;DHT22;18309;43.658;1.312;2023-06-14T14:55:54;25.80;99.80
31729;DHT22;18309;43.658;1.312;2023-06-14T14:58:20;25.80;99.40
31729;DHT22;18309;43.658;1.312;2023-06-14T15:00:46;26.10;99.60
31729;DHT22;18309;43.658;1.312;2023-06-14T15:03:13;26.10;99.60
31729;DHT22;18309;43.658;1.312;2023-06-14T15:05:39;26.20;99.80
31729;DHT22;18309;43.658;1.312;2023-06-14T15:08:05;26.30;99.60
31729;DHT22;18309;43.658;1.312;2023-06-14T15:10:37;26.50;98.90
31729;DHT22;18309;43.658;1.312;2023-06-14T15:13:06;26.70;99.00
31729;DHT22;18309;43.658;1.312;2023-06-14T15:15:32;26.10;99.10
31729;DHT22;18309;43.658;1.312;2023-06-14T15:17:59;26.00;99.60
31729;DHT22;18309;43.658;1.312;2023-06-14T15:20:25;26.10;99.60
31729;DHT22;18309;43.658;1.312;2023-06-14T15:22:51;26.20;99.10
31729;DHT22;18309;43.658;1.312;2023-06-14T15:25:18;26.10;99.50
31729;DHT22;18309;43.658;1.312;2023-06-14T15:27:46;26.20;99.70
31729;DHT22;18309;43.658;1.312;2023-06-14T15:30:12;26.40;99.10
31729;DHT22;18309;43.658;1.312;2023-06-14T15:32:38;26.30;99.30
31729;DHT22;18309;43.658;1.312;2023-06-14T15:35:04;26.20;99.00
31729;DHT22;18309;43.658;1.312;2023-06-14T15:37:30;26.40;99.10
31729;DHT22;18309;43.658;1.312;2023-06-14T15:39:56;26.30;98.90
31729;DHT22;18309;43.658;1.312;2023-06-14T15:42:21;26.20;99.00
31729;DHT22;18309;43.658;1.312;2023-06-14T15:44:47;26.20;99.60
31729;DHT22;18309;43.658;1.312;2023-06-14T15:47:13;26.40;98.80
31729;DHT22;18309;43.658;1.312;2023-06-14T15:49:39;26.60;98.30